Time;durP1;ratioP1;P1;durP2;ratioP2;P2;SDS_P1;SDS_P2;PMS_P1;PMS_P2;Temp;Humidity;BMP_temperature;BMP_pressure;BME280_temperature;BME280_humidity;BME280_pressure;Samples;Min_cycle;Max_cycle;Signal;HPM_P1;HPM_P2
2022/03/14 11:08:07;;;;;;;;;;;;;;;;;;;;;
2022/03/14 11:10:53;;;;;;;3.08;1.75;;;13.40;99.90;;;;;;4863864;29;20055;-94
2022/03/14 11:29:17;;;;;;;4.80;1.92;;;12.70;99.90;;;;;;5366597;23;20085;-88
2022/03/14 12:26:00;;;;;;;3.55;2.25;;;13.50;99.90;;;;;;5902219;23;20024;-92
2022/03/14 12:28:37;;;;;;;1.73;1.55;;;13.60;99.90;;;;;;4863723;29;20132;-92
2022/03/14 12:31:03;;;;;;;2.72;2.22;;;13.70;99.90;;;;;;4864078;29;20415;-94
2022/03/14 12:33:37;;;;;;;5.38;2.13;;;13.70;99.90;;;;;;4864014;29;20029;-93
2022/03/14 12:36:31;;;;;;;3.63;2.53;;;13.60;99.90;;;;;;4848681;29;20036;-91
2022/03/14 12:39:10;;;;;;;2.30;1.83;;;13.30;99.90;;;;;;4848716;29;20037;-93
2022/03/14 12:54:09;;;;;;;4.28;2.00;;;13.40;99.90;;;;;;4865478;29;20044;-93
2022/03/14 12:56:44;;;;;;;4.90;2.25;;;13.40;99.90;;;;;;4864431;29;20044;-93
2022/03/14 12:59:13;;;;;;;;;;;13.40;99.90;;;;;;4864595;29;20025;-93
2022/03/14 13:01:48;;;;;;;4.25;2.63;;;13.40;99.90;;;;;;4872809;24;19924;-93
2022/03/14 13:04:57;;;;;;;4.60;2.20;;;13.30;99.90;;;;;;4862411;29;20038;-94
2022/03/14 13:07:36;;;;;;;3.75;2.50;;;13.20;99.90;;;;;;4979691;24;20056;-93
2022/03/14 13:10:03;;;;;;;5.25;2.67;;;13.20;99.90;;;;;;4848342;29;20089;-93
2022/03/14 13:12:29;;;;;;;5.45;2.85;;;13.10;99.90;;;;;;4849235;29;20037;-93
2022/03/14 13:15:11;;;;;;;3.95;2.55;;;13.10;99.90;;;;;;4863733;29;20033;-92
2022/03/14 13:17:45;;;;;;;5.22;2.25;;;13.10;99.90;;;;;;4846935;29;20029;-92
2022/03/14 13:20:27;;;;;;;6.00;2.65;;;13.00;99.90;;;;;;4833705;29;20033;-92
2022/03/14 13:22:55;;;;;;;3.80;2.10;;;13.00;99.90;;;;;;4833657;29;20448;-93
2022/03/14 13:25:36;;;;;;;4.03;2.45;;;13.10;99.90;;;;;;4833673;29;20021;-93
2022/03/14 13:28:04;;;;;;;3.65;2.42;;;13.00;99.90;;;;;;4833665;29;20038;-93
2022/03/14 13:31:09;;;;;;;8.90;2.70;;;13.00;99.90;;;;;;4833722;29;20037;-94
2022/03/14 13:33:42;;;;;;;;;;;13.10;99.90;;;;;;4834268;29;20097;-92
2022/03/14 13:36:14;;;;;;;4.68;2.17;;;13.10;99.90;;;;;;4848782;29;19912;-94
2022/03/14 13:38:49;;;;;;;3.80;2.30;;;13.10;99.90;;;;;;4833976;29;20040;-94
2022/03/14 13:47:59;;;;;;;2.70;2.50;;;13.10;99.90;;;;;;5065440;23;20053;-93
2022/03/14 13:50:28;;;;;;;4.53;2.65;;;12.90;99.90;;;;;;4869987;29;20052;-93
2022/03/14 16:06:04;;;;;;;6.30;3.10;;;11.70;99.90;;;;;;5956161;23;20035;31
2022/03/14 16:20:20;;;;;;;11.07;3.83;;;11.40;99.90;;;;;;5901016;23;20029;-90
2022/03/14 18:53:28;;;;;;;33.63;14.55;;;8.80;99.90;;;;;;3299647;23;20416;-92
2022/03/14 19:15:01;;;;;;;51.20;21.98;;;8.60;99.90;;;;;;5194306;23;21250;-93
2022/03/14 22:13:51;;;;;;;48.20;20.08;;;6.70;99.90;;;;;;6256693;22;20074;-92
2022/03/14 22:16:25;;;;;;;48.90;19.67;;;6.70;99.90;;;;;;6223658;22;20023;-89
2022/03/14 22:18:52;;;;;;;44.78;19.00;;;6.70;99.90;;;;;;6216849;23;20020;-87
2022/03/14 22:21:21;;;;;;;54.88;21.63;;;6.70;99.90;;;;;;6192562;23;20020;-87
2022/03/14 22:23:51;;;;;;;50.35;18.88;;;6.70;99.90;;;;;;6191500;23;20011;-86
2022/03/14 22:26:17;;;;;;;49.78;20.23;;;6.70;99.90;;;;;;6191756;23;20016;-86
2022/03/14 22:28:44;;;;;;;46.00;20.23;;;6.70;99.90;;;;;;6191988;23;20005;-86
2022/03/14 22:31:10;;;;;;;46.90;19.70;;;6.70;99.90;;;;;;6192111;23;20019;-87
2022/03/14 22:33:38;;;;;;;51.38;20.48;;;6.60;99.90;;;;;;6192027;23;20004;-87
2022/03/14 22:36:05;;;;;;;51.17;21.38;;;6.60;99.90;;;;;;6191854;23;20040;-87
2022/03/14 22:38:31;;;;;;;57.70;23.05;;;6.60;99.90;;;;;;6191948;23;20008;-86
2022/03/14 22:40:58;;;;;;;53.13;22.20;;;6.50;99.90;;;;;;6216698;23;20032;-86
2022/03/14 22:43:25;;;;;;;50.78;21.15;;;6.50;99.90;;;;;;6191843;23;20000;-87
2022/03/14 22:45:53;;;;;;;50.67;22.48;;;6.60;99.90;;;;;;6191966;23;20017;-86
2022/03/14 22:48:20;;;;;;;47.65;22.33;;;6.60;99.90;;;;;;6191691;23;20013;-86
2022/03/14 22:50:47;;;;;;;43.17;19.05;;;6.60;99.90;;;;;;6191592;23;20004;-86
2022/03/14 22:53:15;;;;;;;47.63;20.33;;;6.50;99.90;;;;;;6191655;23;20043;-86
2022/03/14 22:55:43;;;;;;;54.63;20.85;;;6.50;99.90;;;;;;6191967;23;20009;-86
2022/03/14 22:58:12;;;;;;;48.08;19.08;;;6.40;99.90;;;;;;6191804;23;20005;-86
2022/03/14 23:00:45;;;;;;;45.55;19.77;;;6.30;99.90;;;;;;6191676;23;20015;-86
2022/03/14 23:05:59;;;;;;;43.40;18.10;;;6.30;99.90;;;;;;6216517;23;20016;-87
2022/03/14 23:08:29;;;;;;;48.10;20.08;;;6.20;99.90;;;;;;6191583;23;20084;-86
2022/03/14 23:13:47;;;;;;;48.13;19.38;;;6.20;99.90;;;;;;6216425;23;20120;-87
2022/03/14 23:16:21;;;;;;;40.65;17.80;;;6.20;99.90;;;;;;6221140;23;20050;-86
2022/03/14 23:18:50;;;;;;;41.88;17.45;;;6.20;99.90;;;;;;6196661;23;20009;-86
2022/03/14 23:21:18;;;;;;;45.97;19.33;;;6.10;99.90;;;;;;6196147;23;20008;-86
2022/03/14 23:23:52;;;;;;;43.05;17.13;;;6.10;99.90;;;;;;6196526;23;20449;-86
2022/03/14 23:26:22;;;;;;;49.70;18.48;;;6.00;99.90;;;;;;6196916;23;20016;-86
2022/03/14 23:28:49;;;;;;;37.65;17.27;;;5.90;99.90;;;;;;6195753;23;20005;-85
2022/03/14 23:31:23;;;;;;;45.17;17.77;;;5.80;99.90;;;;;;6196348;23;20012;-84
2022/03/14 23:33:52;;;;;;;42.78;18.35;;;5.80;99.90;;;;;;6196304;23;20008;-86
2022/03/14 23:36:21;;;;;;;41.10;18.40;;;5.70;99.90;;;;;;6196187;23;20008;-86
2022/03/14 23:38:49;;;;;;;40.90;18.00;;;5.70;99.90;;;;;;6196078;23;20012;-87
2022/03/14 23:41:17;;;;;;;45.88;18.10;;;5.70;99.90;;;;;;6196288;23;20085;-86
2022/03/14 23:43:44;;;;;;;39.85;17.08;;;5.70;99.90;;;;;;6221273;23;20091;-87
2022/03/14 23:46:11;;;;;;;43.95;17.63;;;5.70;99.90;;;;;;6196188;23;20020;-84
2022/03/14 23:48:38;;;;;;;36.03;16.90;;;5.70;99.90;;;;;;6196336;23;20071;-87
2022/03/14 23:51:05;;;;;;;39.53;16.67;;;5.70;99.90;;;;;;6195908;23;20019;-85
2022/03/14 23:53:32;;;;;;;41.78;15.80;;;5.60;99.90;;;;;;6195867;23;20008;-86
2022/03/14 23:55:59;;;;;;;39.67;17.20;;;5.60;99.90;;;;;;6196044;23;20008;-84
2022/03/14 23:58:27;;;;;;;41.72;17.15;;;5.60;99.90;;;;;;6196227;23;20005;-86
